Latest Weather Observations for Sydney - Observatory Hill

IDN60901

Issued at 10:45 pm EST Thursday 24 April 2014 (issued every 10 minutes, with the page automatically refreshed every 10 minutes)

About weather observations | Map of Sydney area stations | Latest observations for Sydney area | Other Formats
Station Details ID: 066062 Name: SYDNEY (OBSERVATORY HILL) Lat: -33.86 Lon: 151.21 Height: 39.0 m
Data from the previous 72 hours. | See also: Recent months at Sydney - Observatory Hill

* Apparent temperature (App Temp) for Sydney - Observatory Hill is calculated using temperature observations collected at Sydney - Observatory Hill and wind observations collected at Fort Denison, as wind observations are not currently provided for Sydney - Observatory Hill.

Date/Time
EST
Tmp

°C
App
Tmp
°C
Dew
Point
°C
Rel
Hum
%
Delta-T

°C
Wind Press
QNH
hPa
Press
MSL
hPa
Rain
since
9 am
mm
Dir
 
Spd
km/h
Gust
km/h
Spd
kts
Gust
kts
24/10:30pm 21.5 17.3 15.8 70 3.4 - 32 - 17 - 1018.2 - 0.0
24/10:00pm 21.6 19.2 14.3 63 4.3 - 20 - 11 - 1017.9 1017.8 0.0
24/09:30pm 22.0 18.8 12.0 53 5.6 - 20 - 11 - 1017.4 - 0.0
24/09:00pm 21.1 21.4 14.5 66 3.9 - 6 - 3 - 1016.6 1016.5 0.0
24/08:30pm 22.1 23.2 14.5 62 4.5 - 2 - 1 - 1016.1 - 0.0
24/08:00pm 21.9 22.8 14.0 61 4.6 - 2 - 1 - 1015.6 1015.5 0.0
24/07:30pm 21.9 22.9 13.3 58 5.0 CALM 0 - 0 - 1015.1 - 0.0
24/07:00pm 23.0 24.0 14.3 58 5.1 - 2 - 1 - 1014.6 1014.5 0.0
24/06:30pm 24.1 25.0 15.1 57 5.4 - 4 - 2 - 1014.1 - 0.0
24/06:00pm 24.7 25.3 13.0 48 6.8 - 2 - 1 - 1013.4 1013.3 0.0
24/05:30pm 25.2 23.1 9.9 38 8.4 - 11 - 6 - 1012.8 - 0.0
24/05:00pm 26.8 24.7 6.8 28 10.6 - 7 - 4 - 1012.2 1012.1 0.0
24/04:30pm 27.5 25.3 6.3 26 11.1 - 7 - 4 - 1012.0 - 0.0
24/04:00pm 28.1 24.0 6.2 25 11.5 - 17 - 9 - 1011.6 1011.5 0.0
24/03:30pm 28.7 24.7 6.7 25 11.7 - 17 - 9 - 1011.5 - 0.0
24/03:00pm 28.9 27.4 8.6 28 11.2 - 6 - 3 - 1011.4 1011.3 0.0
24/02:30pm 29.0 26.0 9.2 29 11.0 - 15 - 8 - 1011.4 - 0.0
24/02:00pm 29.3 25.7 8.4 27 11.5 - 17 - 9 - 1011.5 1011.4 0.0
24/01:30pm 29.2 26.0 8.3 27 11.5 - 15 - 8 - 1011.5 - 0.0
24/01:00pm 28.8 26.1 7.4 26 11.5 - 11 - 6 - 1011.6 1011.5 0.0
24/12:30pm 27.9 25.2 7.2 27 11.1 - 11 - 6 - 1011.9 - 0.0
24/12:00pm 27.4 24.4 7.8 29 10.6 - 13 - 7 - 1012.3 1012.2 0.0
24/11:30am 25.8 22.7 8.8 34 9.2 - 15 - 8 - 1012.8 - 0.0
24/11:00am 24.1 21.1 10.7 43 7.5 - 17 - 9 - 1013.1 1013.0 0.0
24/10:30am 22.6 19.6 10.7 47 6.6 - 17 - 9 - 1013.5 - 0.0
24/10:00am 21.4 18.3 10.3 49 6.0 - 17 - 9 - 1013.6 1013.5 0.0
24/09:30am 20.0 17.8 9.3 50 5.7 - 11 - 6 - 1013.6 - 0.0
24/09:00am 19.3 16.4 9.5 53 5.2 - 15 - 8 - 1013.8 1013.7 0.0
24/08:30am 18.9 15.4 8.6 51 5.4 - 17 - 9 - 1013.8 - 0.0
24/08:00am 18.1 15.5 9.5 57 4.5 - 13 - 7 - 1013.8 1013.7 0.0
24/07:30am 16.2 13.1 10.3 68 3.1 - 17 - 9 - 1013.6 - 0.0
24/07:00am 15.5 12.0 10.3 71 2.7 - 19 - 10 - 1013.2 1013.1 0.0
24/06:30am 14.4 12.7 10.0 75 2.3 - 9 - 5 - 1013.1 - 0.0
24/06:00am 14.3 11.5 10.1 76 2.2 - 15 - 8 - 1013.0 1012.9 0.0
24/05:30am 14.5 12.4 9.9 74 2.4 - 11 - 6 - 1012.8 - 0.0
24/05:00am 14.8 13.5 9.8 72 2.6 - 7 - 4 - 1012.8 1012.7 0.0
24/04:30am 15.0 12.1 9.8 71 2.7 - 15 - 8 - 1013.2 - 0.0
24/04:00am 15.3 13.5 10.9 75 2.3 - 11 - 6 - 1013.0 1012.9 0.0
24/03:30am 15.5 13.6 10.5 72 2.6 - 11 - 6 - 1013.0 - 0.0
24/03:00am 16.0 14.1 10.5 70 2.9 - 11 - 6 - 1013.3 1013.2 0.0
24/02:30am 16.4 13.9 10.9 70 2.9 - 15 - 8 - 1013.5 - 0.0
24/02:00am 16.6 16.1 10.9 69 3.1 - 4 - 2 - 1013.7 1013.6 0.0
24/01:30am 16.8 15.9 11.3 70 3.0 - 7 - 4 - 1014.0 - 0.0
24/01:00am 17.0 15.3 11.1 68 3.2 - 11 - 6 - 1014.2 1014.1 0.0
24/12:30am 17.4 15.3 11.2 67 3.4 - 13 - 7 - 1014.4 - 0.0
24/12:00am 17.6 17.0 11.8 69 3.2 - 6 - 3 - 1014.5 1014.4 0.0
 
Date/Time
EST
Tmp

°C
App
Tmp
°C
Dew
Point
°C
Rel
Hum
%
Delta-T

°C
Wind Press
QNH
hPa
Press
MSL
hPa
Rain
since
9 am
mm
Dir
 
Spd
km/h
Gust
km/h
Spd
kts
Gust
kts
23/11:30pm 18.0 16.4 11.6 66 3.5 - 11 - 6 - 1014.8 - 0.0
23/11:00pm 19.0 18.4 11.6 62 4.1 - 6 - 3 - 1014.9 1014.8 0.0
23/10:30pm 19.7 19.5 11.7 60 4.4 - 4 - 2 - 1015.1 - 0.0
23/10:00pm 19.8 19.6 11.8 60 4.4 - 4 - 2 - 1015.4 1015.3 0.0
23/09:30pm 19.9 20.0 12.7 63 4.1 - 4 - 2 - 1015.4 - 0.0
23/09:00pm 20.4 20.9 12.9 62 4.3 - 2 - 1 - 1015.6 1015.5 0.0
23/08:30pm 20.4 20.0 12.9 62 4.3 - 7 - 4 - 1015.7 - 0.0
23/08:00pm 20.5 20.7 13.0 62 4.3 - 4 - 2 - 1015.8 1015.7 0.0
23/07:30pm 20.7 21.3 13.2 62 4.3 - 2 - 1 - 1015.7 - 0.0
23/07:00pm 20.8 21.0 13.0 61 4.4 - 4 - 2 - 1015.7 1015.6 0.0
23/06:30pm 21.0 21.0 12.4 58 4.9 - 4 - 2 - 1015.5 - 0.0
23/06:00pm 21.3 21.3 12.4 57 5.0 - 4 - 2 - 1015.2 1015.1 0.0
23/05:30pm 21.5 20.4 12.1 55 5.3 - 9 - 5 - 1015.0 - 0.0
23/05:00pm 22.0 20.4 11.4 51 5.9 - 11 - 6 - 1014.9 1014.8 0.0
23/04:30pm 22.6 20.4 9.4 43 7.1 - 11 - 6 - 1014.9 - 0.0
23/04:00pm 23.0 20.2 8.7 40 7.6 - 13 - 7 - 1014.9 1014.8 0.0
23/03:30pm 23.9 21.1 8.7 38 8.2 - 13 - 7 - 1014.9 - 0.0
23/03:00pm 24.0 21.1 8.0 36 8.5 - 13 - 7 - 1015.0 1014.9 0.0
23/02:30pm 25.8 23.3 8.3 33 9.4 - 11 - 6 - 1015.0 - 0.0
23/02:00pm 25.7 25.5 9.1 35 9.1 CALM 0 - 0 - 1015.1 1015.0 0.0
23/01:30pm 24.9 23.9 10.4 40 8.1 - 6 - 3 - 1015.1 - 0.0
23/01:00pm 24.0 22.7 9.9 41 7.7 - 7 - 4 - 1015.5 1015.4 0.0
23/12:30pm 23.0 21.5 10.4 45 6.9 - 9 - 5 - 1016.0 - 0.0
23/12:00pm 22.7 21.3 9.5 43 7.1 - 7 - 4 - 1016.3 1016.2 0.0
23/11:30am 21.5 18.9 9.4 46 6.5 - 13 - 7 - 1016.7 - 0.0
23/11:00am 20.9 17.6 9.5 48 6.1 - 17 - 9 - 1017.0 1016.9 0.0
23/10:30am 19.7 17.1 9.3 51 5.5 - 13 - 7 - 1017.2 - 0.0
23/10:00am 18.8 16.2 9.3 54 5.0 - 13 - 7 - 1017.3 1017.2 0.0
23/09:30am 18.2 14.5 9.5 57 4.6 - 19 - 10 - 1017.6 - 0.0
23/09:00am 17.6 13.7 9.5 59 4.2 - 20 - 11 - 1017.7 1017.6 0.0
23/08:30am 17.5 13.6 9.4 59 4.2 - 20 - 11 - 1017.9 - 0.0
23/08:00am 15.9 11.9 8.9 63 3.6 - 20 - 11 - 1017.7 1017.6 0.0
23/07:30am 15.1 11.7 9.0 67 3.1 - 17 - 9 - 1017.6 - 0.0
23/07:00am 14.0 10.5 8.6 70 2.7 - 17 - 9 - 1017.4 1017.3 0.0
23/06:30am 13.5 10.3 8.4 71 2.5 - 15 - 8 - 1017.1 - 0.0
23/06:00am 13.7 10.1 8.5 71 2.6 - 17 - 9 - 1016.9 1016.8 0.0
23/05:30am 14.0 10.8 8.6 70 2.7 - 15 - 8 - 1016.7 - 0.0
23/05:00am 13.8 9.7 7.8 67 3.0 - 19 - 10 - 1016.7 1016.6 0.0
23/04:30am 14.5 11.0 8.7 68 2.9 - 17 - 9 - 1016.6 - 0.0
23/04:00am 14.8 11.6 10.0 73 2.5 - 17 - 9 - 1016.4 1016.3 0.0
23/03:30am 15.3 12.7 9.2 67 3.1 - 13 - 7 - 1016.3 - 0.0
23/03:00am 14.9 12.2 10.5 75 2.3 - 15 - 8 - 1016.5 1016.4 0.0
23/02:30am 14.9 12.2 10.5 75 2.3 - 15 - 8 - 1016.5 - 0.0
23/02:00am 15.0 12.7 10.4 74 2.4 - 13 - 7 - 1016.5 1016.4 0.0
23/01:30am 15.4 12.9 11.2 76 2.2 - 15 - 8 - 1016.6 - 0.0
23/01:00am 16.1 13.8 11.7 75 2.4 - 15 - 8 - 1016.7 1016.6 0.0
23/12:30am 16.8 14.7 11.3 70 3.0 - 13 - 7 - 1016.5 - 0.0
23/12:00am 17.8 16.1 9.9 60 4.2 - 9 - 5 - 1016.6 1016.5 0.0
 
Date/Time
EST
Tmp

°C
App
Tmp
°C
Dew
Point
°C
Rel
Hum
%
Delta-T

°C
Wind Press
QNH
hPa
Press
MSL
hPa
Rain
since
9 am
mm
Dir
 
Spd
km/h
Gust
km/h
Spd
kts
Gust
kts
22/11:30pm 17.8 16.6 10.4 62 4.0 - 7 - 4 - 1016.5 - 0.0
22/11:00pm 18.7 17.4 9.8 56 4.7 - 7 - 4 - 1016.7 1016.6 0.0
22/10:30pm 18.8 17.5 10.1 57 4.7 - 7 - 4 - 1016.8 - 0.0
22/10:00pm 18.2 17.0 10.3 60 4.2 - 7 - 4 - 1016.7 1016.6 0.0
22/09:30pm 18.9 16.5 10.2 57 4.7 - 13 - 7 - 1016.6 - 0.0
22/09:00pm 18.7 17.0 10.0 57 4.6 - 9 - 5 - 1016.6 1016.5 0.0
22/08:30pm 19.0 17.3 9.8 55 4.9 - 9 - 5 - 1016.4 - 0.0
22/08:00pm 19.4 17.8 10.1 55 5.0 - 9 - 5 - 1016.3 1016.2 0.0
22/07:30pm 19.6 19.2 11.1 58 4.7 - 4 - 2 - 1016.2 - 0.0
22/07:00pm 19.7 19.3 9.9 53 5.2 - 2 - 1 - 1016.0 1015.9 0.0
22/06:30pm 19.9 19.2 10.0 53 5.3 - 4 - 2 - 1015.7 - 0.0
22/06:00pm 19.9 19.6 10.0 53 5.3 - 2 - 1 - 1015.5 1015.4 0.0
22/05:30pm 20.6 20.2 9.8 50 5.8 - 2 - 1 - 1015.4 - 0.0
22/05:00pm 21.6 20.5 9.8 47 6.4 - 6 - 3 - 1015.3 1015.2 0.0
22/04:30pm 22.6 21.1 9.0 42 7.3 - 7 - 4 - 1015.1 - 0.0
22/04:00pm 23.5 21.9 8.0 37 8.2 - 6 - 3 - 1014.9 1014.8 0.0
22/03:30pm 24.4 22.4 7.1 33 9.0 - 7 - 4 - 1015.0 - 0.0
22/03:00pm 24.4 21.5 6.6 32 9.2 - 11 - 6 - 1015.0 1014.9 0.0
22/02:30pm 24.6 22.2 6.8 32 9.3 - 9 - 5 - 1015.0 - 0.0
22/02:00pm 25.0 22.7 7.6 33 9.2 - 9 - 5 - 1015.2 1015.1 0.0
22/01:30pm 24.4 21.9 8.0 35 8.7 - 11 - 6 - 1015.3 - 0.0
22/01:00pm 22.9 21.8 10.0 44 7.0 - 6 - 3 - 1015.6 1015.5 0.0
22/12:30pm 22.9 21.4 11.9 50 6.2 - 11 - 6 - 1016.1 - 0.0
22/12:00pm 21.3 18.7 10.8 51 5.8 - 15 - 8 - 1016.7 1016.6 0.0
22/11:30am 20.3 17.5 11.5 57 4.9 - 17 - 9 - 1017.2 - 0.0
22/11:00am 19.1 16.5 10.6 58 4.6 - 15 - 8 - 1017.5 1017.4 0.0
22/10:30am 17.7 15.7 10.3 62 3.9 - 11 - 6 - 1017.9 - 0.0
22/10:00am 17.0 15.0 10.1 64 3.6 - 11 - 6 - 1018.2 1018.1 0.0
22/09:30am 16.5 13.3 10.1 66 3.4 - 17 - 9 - 1018.7 - 0.0
22/09:00am 15.8 12.5 9.7 67 3.2 - 17 - 9 - 1018.7 1018.7 0.0
22/08:30am 15.1 12.1 9.2 68 3.0 - 15 - 8 - 1018.5 - 0.0
22/08:00am 14.5 12.3 9.3 71 2.7 - 11 - 6 - 1018.6 1018.6 0.0
22/07:30am 13.7 11.2 9.7 77 2.1 - 13 - 7 - 1018.9 - 0.0
22/07:00am 13.1 10.2 9.5 79 1.8 - 15 - 8 - 1019.0 1019.0 0.0
22/06:30am 12.4 9.8 9.2 81 1.6 - 13 - 7 - 1018.7 - 0.0
22/06:00am 12.5 10.0 9.7 83 1.4 - 13 - 7 - 1018.7 1018.7 0.0
22/05:30am 12.5 10.0 9.7 83 1.4 - 13 - 7 - 1018.7 - 0.0
22/05:00am 12.8 9.6 9.8 82 1.5 - 17 - 9 - 1018.7 1018.7 0.0
22/04:30am 12.9 10.7 9.5 80 1.7 - 11 - 6 - 1018.7 - 0.0
22/04:00am 13.1 11.3 9.5 79 1.8 - 9 - 5 - 1018.7 1018.7 0.0
22/03:30am 13.6 11.5 9.8 78 2.0 - 11 - 6 - 1018.7 - 0.0
22/03:00am 13.8 11.3 9.6 76 2.2 - 13 - 7 - 1018.8 1018.8 0.0
22/02:30am 13.9 12.3 10.3 79 1.9 - 9 - 5 - 1019.0 - 0.0
22/02:00am 13.9 12.2 9.9 77 2.1 - 9 - 5 - 1019.1 1019.1 0.0
22/01:30am 14.1 11.6 9.7 75 2.3 - 13 - 7 - 1019.5 - 0.0
22/01:00am 14.6 12.6 10.2 75 2.3 - 11 - 6 - 1019.9 1019.8 0.0
22/12:30am 15.0 13.0 10.2 73 2.5 - 11 - 6 - 1020.1 - 0.0
22/12:00am 15.2 13.3 10.4 73 2.5 - 11 - 6 - 1020.1 1020.0 0.0
 
Date/Time
EST
Tmp

°C
App
Tmp
°C
Dew
Point
°C
Rel
Hum
%
Delta-T

°C
Wind Press
QNH
hPa
Press
MSL
hPa
Rain
since
9 am
mm
Dir
 
Spd
km/h
Gust
km/h
Spd
kts
Gust
kts
21/11:30pm 15.3 13.3 10.1 71 2.7 - 11 - 6 - 1020.3 - 0.0
21/11:00pm 15.6 14.2 11.0 74 2.4 - 9 - 5 - 1020.3 1020.2 0.0

Latest Capital City Observations: Canberra | Sydney | Melbourne | Brisbane | Adelaide | Perth | Hobart | Darwin

Other Formats:

Comma delimited format used in spreadsheet applications
http://www.bom.gov.au/fwo/IDN60901/IDN60901.94768.axf

JavaScript Object Notation format (JSON) in row-major order
http://www.bom.gov.au/fwo/IDN60901/IDN60901.94768.json